| time (UTC) | temp C | wind direction | speed KPH | gust KPH | rain 1hr cm | rain 24hr cm | rain mn cm | humidity % | barometer mb |
| 20260505064513 | 12 | 171 | 0.0 | 0.0 | 0.00 | 0.00 | 0.00 | 53 | 1014.2 |
| 20260505063012 | 12 | 223 | 0.0 | 0.0 | 0.00 | 0.00 | 0.00 | 52 | 1014.2 |
| 20260505061523 | 12 | 223 | 0.0 | 1.6 | 0.00 | 0.00 | 0.00 | 51 | 1014.3 |
| 20260505060007 | 13 | 219 | 0.0 | 0.0 | 0.00 | 0.00 | 0.00 | 50 | 1014.4 |
| 20260505054513 | 13 | 225 | 0.0 | 0.0 | 0.00 | 0.00 | 0.00 | 49 | 1014.3 |
| 20260505053006 | 13 | 213 | 0.0 | 0.0 | 0.00 | 0.00 | 0.00 | 48 | 1014.3 |
| 20260505051504 | 13 | 203 | 0.0 | 1.6 | 0.00 | 0.00 | 0.00 | 48 | 1014.3 |
| 20260505041557 | 13 | 248 | 0.0 | 1.6 | 0.00 | 0.00 | 0.00 | 45 | 1014.4 |
| 20260505040059 | 14 | 167 | 0.0 | 4.8 | 0.00 | 0.00 | 0.00 | 44 | 1014.4 |
| 20260505034554 | 14 | 241 | 0.0 | 8.0 | 0.00 | 0.00 | 0.00 | 43 | 1014.4 |
| 20260505033055 | 14 | 252 | 0.0 | 9.7 | 0.00 | 0.00 | 0.00 | 42 | 1014.2 |
| 20260505031556 | 15 | 202 | 0.0 | 9.7 | 0.00 | 0.00 | 0.00 | 41 | 1014.3 |
| 20260505030052 | 15 | 216 | 0.0 | 8.0 | 0.00 | 0.00 | 0.00 | 39 | 1014.2 |
| 20260505024607 | 15 | 190 | 0.0 | 6.4 | 0.00 | 0.00 | 0.00 | 38 | 1014.2 |
| 20260505023051 | 15 | 222 | 0.0 | 4.8 | 0.00 | 0.00 | 0.00 | 37 | 1014.2 |
| 20260505021606 | 15 | 209 | 0.0 | 9.7 | 0.00 | 0.00 | 0.00 | 37 | 1014.2 |
| 20260505020049 | 15 | 181 | 0.0 | 9.7 | 0.00 | 0.00 | 0.00 | 36 | 1014.3 |
| 20260505014549 | 16 | 108 | 0.0 | 8.0 | 0.00 | 0.00 | 0.00 | 35 | 1014.2 |
| 20260505013048 | 16 | 154 | 0.0 | 6.4 | 0.00 | 0.00 | 0.00 | 35 | 1013.9 |
| 20260505011555 | 16 | 205 | 0.0 | 11.3 | 0.00 | 0.00 | 0.00 | 34 | 1013.5 |
| 20260505010048 | 16 | 279 | 1.6 | 12.9 | 0.00 | 0.00 | 0.00 | 34 | 1013.3 |
| 20260505004549 | 16 | 205 | 0.0 | 3.2 | 0.00 | 0.00 | 0.00 | 35 | 1013.1 |
| 20260505003047 | 17 | 225 | 0.0 | 8.0 | 0.00 | 0.00 | 0.00 | 33 | 1012.8 |
| 20260505001547 | 17 | 180 | 0.0 | 14.5 | 0.00 | 0.00 | 0.00 | 31 | 1012.2 |
| 20260505000046 | 18 | 101 | 0.0 | 14.5 | 0.00 | 0.00 | 0.00 | 30 | 1011.8 |
| 20260504234545 | 18 | 101 | 1.6 | 14.5 | 0.00 | 0.00 | 0.00 | 29 | 1011.6 |
| 20260504233056 | 19 | 200 | 3.2 | 11.3 | 0.00 | 0.00 | 0.00 | 27 | 1011.4 |
| 20260504231544 | 20 | 221 | 3.2 | 22.5 | 0.00 | 0.00 | 0.00 | 26 | 1011.0 |
| 20260504230043 | 20 | 224 | 3.2 | 19.3 | 0.00 | 0.00 | 0.00 | 23 | 1010.7 |
| 20260504224540 | 21 | 235 | 3.2 | 12.9 | 0.00 | 0.00 | 0.00 | 20 | 1010.4 |
| 20260504223043 | 21 | 258 | 3.2 | 14.5 | 0.00 | 0.00 | 0.00 | 18 | 1010.3 |
| 20260504221546 | 21 | 201 | 0.0 | 12.9 | 0.00 | 0.00 | 0.00 | 18 | 1010.3 |
| 20260504220056 | 22 | 296 | 3.2 | 14.5 | 0.00 | 0.00 | 0.00 | 17 | 1010.2 |
| 20260504214542 | 21 | 218 | 3.2 | 17.7 | 0.00 | 0.00 | 0.00 | 17 | 1010.3 |
| 20260504213038 | 22 | 206 | 6.4 | 19.3 | 0.00 | 0.00 | 0.00 | 16 | 1010.2 |
| 20260504211538 | 22 | 228 | 1.6 | 14.5 | 0.00 | 0.00 | 0.00 | 17 | 1010.1 |
| 20260504210036 | 22 | 203 | 1.6 | 12.9 | 0.00 | 0.00 | 0.00 | 15 | 1010.4 |
| 20260504204553 | 22 | 221 | 3.2 | 16.1 | 0.00 | 0.00 | 0.00 | 15 | 1010.3 |
| 20260504203037 | 22 | 229 | 4.8 | 14.5 | 0.00 | 0.00 | 0.00 | 14 | 1010.3 |
| 20260504201535 | 22 | 263 | 3.2 | 17.7 | 0.00 | 0.00 | 0.00 | 14 | 1010.5 |
| 20260504200041 | 22 | 200 | 1.6 | 17.7 | 0.00 | 0.00 | 0.00 | 14 | 1010.4 |
| 20260504194538 | 22 | 103 | 3.2 | 19.3 | 0.00 | 0.00 | 0.00 | 14 | 1010.5 |
| 20260504193031 | 22 | 278 | 3.2 | 19.3 | 0.00 | 0.00 | 0.00 | 15 | 1010.5 |
| 20260504191530 | 22 | 190 | 0.0 | 19.3 | 0.00 | 0.00 | 0.00 | 15 | 1010.6 |
| 20260504190035 | 22 | 260 | 11.3 | 24.1 | 0.00 | 0.00 | 0.00 | 14 | 1010.8 |
| 20260504184533 | 21 | 259 | 3.2 | 22.5 | 0.00 | 0.00 | 0.00 | 16 | 1010.8 |
| 20260504183025 | 21 | 256 | 4.8 | 22.5 | 0.00 | 0.00 | 0.00 | 16 | 1010.9 |
| 20260504181524 | 22 | 236 | 8.0 | 25.7 | 0.00 | 0.00 | 0.00 | 14 | 1011.0 |
| 20260504180021 | 21 | 215 | 9.7 | 24.1 | 0.00 | 0.00 | 0.00 | 16 | 1011.2 |
| 20260504174518 | 21 | 229 | 6.4 | 29.0 | 0.00 | 0.00 | 0.00 | 16 | 1011.4 |
| 20260504173017 | 21 | 267 | 9.7 | 33.8 | 0.00 | 0.00 | 0.00 | 16 | 1011.5 |
| 20260504171516 | 20 | 210 | 6.4 | 30.6 | 0.00 | 0.00 | 0.00 | 17 | 1011.3 |
| 20260504081557 | 8 | 261 | 0.0 | 0.0 | 0.00 | 0.00 | 0.00 | 40 | 1014.5 |